Time;durP1;ratioP1;P1;durP2;ratioP2;P2;SDS_P1;SDS_P2;PMS_P1;PMS_P2;Temp;Humidity;BMP_temperature;BMP_pressure;BME280_temperature;BME280_humidity;BME280_pressure;Samples;Min_cycle;Max_cycle;Signal;HPM_P1;HPM_P2
2022/10/14 00:00:33;;;;;;;;;13.75;11.00;;;;;17.42;67.46;100872.81;5097191;27;68580;-39
2022/10/14 00:02:58;;;;;;;;;12.25;9.75;;;;;17.40;67.24;100872.00;5096449;27;46227;-39
2022/10/14 00:05:24;;;;;;;;;11.75;8.25;;;;;17.40;67.30;100872.00;5095221;27;55464;-38
2022/10/14 00:07:49;;;;;;;;;12.00;11.00;;;;;17.40;67.56;100866.72;5086765;27;62592;-38
2022/10/14 00:10:14;;;;;;;;;11.75;8.00;;;;;17.39;67.65;100869.47;5087768;27;45352;-41
2022/10/14 00:12:40;;;;;;;;;14.75;10.25;;;;;17.42;67.47;100869.28;5081005;27;46233;-38
2022/10/14 00:15:06;;;;;;;;;9.50;9.00;;;;;17.40;67.42;100861.44;5083991;27;64641;-39
2022/10/14 00:17:31;;;;;;;;;12.75;9.00;;;;;17.45;67.59;100867.31;5092226;27;45455;-38
2022/10/14 00:19:56;;;;;;;;;8.25;8.25;;;;;17.46;67.42;100871.69;5098804;27;47158;-38
2022/10/14 00:22:22;;;;;;;;;8.50;8.50;;;;;17.48;67.57;100865.47;5088781;27;46686;-38
2022/10/14 00:24:47;;;;;;;;;9.75;7.75;;;;;17.49;67.27;100870.66;5087529;27;45424;-38
2022/10/14 00:27:14;;;;;;;;;8.25;8.00;;;;;17.50;67.40;100868.91;5090996;27;46426;-38
2022/10/14 00:29:39;;;;;;;;;6.00;6.00;;;;;17.49;67.34;100851.28;5090050;27;57234;-38
2022/10/14 00:32:04;;;;;;;;;7.00;6.00;;;;;17.48;67.51;100854.91;5096941;27;57779;-39
2022/10/14 00:34:29;;;;;;;;;8.50;6.00;;;;;17.50;67.37;100853.03;5066043;27;66337;-43
2022/10/14 00:36:55;;;;;;;;;7.50;6.00;;;;;17.48;67.33;100849.59;5095117;27;52823;-40
2022/10/14 00:39:20;;;;;;;;;8.25;6.00;;;;;17.50;67.43;100851.22;5093975;27;72278;-38
2022/10/14 00:41:46;;;;;;;;;6.00;6.00;;;;;17.50;67.34;100845.94;5091159;27;68413;-38
2022/10/14 00:44:14;;;;;;;;;7.00;6.25;;;;;17.51;67.43;100833.53;5094134;27;45465;-38
2022/10/14 00:46:44;;;;;;;;;5.75;5.00;;;;;17.51;67.44;100825.59;5096998;27;45386;-38
2022/10/14 00:49:29;;;;;;;;;4.50;4.50;;;;;17.51;67.30;100829.13;5077655;28;45406;-38
2022/10/14 00:52:03;;;;;;;;;7.50;4.00;;;;;17.49;67.33;100822.19;5078736;27;45371;-39
2022/10/14 00:54:40;;;;;;;;;5.00;5.00;;;;;17.51;67.47;100817.66;5071947;27;45361;-38
2022/10/14 00:57:06;;;;;;;;;5.00;5.00;;;;;17.49;67.41;100822.19;5080836;27;45311;-38
2022/10/14 00:59:32;;;;;;;;;6.00;5.25;;;;;17.49;67.63;100824.84;5053795;27;45613;-38
2022/10/14 01:01:57;;;;;;;;;5.25;5.00;;;;;17.50;67.25;100821.28;5089479;27;64358;-38
2022/10/14 01:04:23;;;;;;;;;5.50;4.00;;;;;17.48;67.36;100818.69;5091569;27;47645;-38
2022/10/14 01:06:55;;;;;;;;;6.75;5.25;;;;;17.50;67.46;100813.34;5091184;27;45604;-38
2022/10/14 01:09:20;;;;;;;;;6.50;6.00;;;;;17.51;67.36;100815.03;5070179;27;45962;-38
2022/10/14 01:12:00;;;;;;;;;4.00;4.00;;;;;17.52;67.34;100819.38;5099118;27;46351;-38
2022/10/14 01:14:32;;;;;;;;;5.75;4.50;;;;;17.52;67.34;100811.44;5087635;27;45642;-38
2022/10/14 01:17:09;;;;;;;;;3.50;3.25;;;;;17.51;67.34;100805.31;5089256;27;45373;-38
2022/10/14 01:19:55;;;;;;;;;5.00;4.50;;;;;17.52;67.37;100801.72;5090272;27;45511;-38
2022/10/14 01:22:32;;;;;;;;;4.00;3.25;;;;;17.52;67.46;100793.78;5049288;27;46386;-38
2022/10/14 01:25:01;;;;;;;;;2.50;2.50;;;;;17.53;67.13;100797.25;5076758;28;45721;-38
2022/10/14 01:27:40;;;;;;;;;3.75;3.75;;;;;17.51;67.12;100792.09;5091418;27;45279;-38
2022/10/14 01:30:18;;;;;;;;;4.00;3.50;;;;;17.53;67.31;100789.31;5083137;27;45431;-38
2022/10/14 01:32:44;;;;;;;;;4.00;3.25;;;;;17.51;67.48;100784.16;5086820;27;48115;-38
2022/10/14 01:35:42;;;;;;;;;5.75;4.50;;;;;17.52;67.13;100785.84;5098702;27;45471;-38
2022/10/14 01:38:12;;;;;;;;;3.00;3.00;;;;;17.51;67.15;100784.16;5076971;27;45369;-38
2022/10/14 01:40:42;;;;;;;;;4.25;3.00;;;;;17.52;66.98;100783.19;5083458;27;45385;-38
2022/10/14 01:43:09;;;;;;;;;3.00;3.00;;;;;17.49;66.77;100783.34;5084792;27;45356;-38
2022/10/14 01:45:36;;;;;;;;;4.00;3.00;;;;;17.45;67.27;100787.97;5079665;27;45270;-38
2022/10/14 01:48:03;;;;;;;;;4.00;2.00;;;;;17.43;67.37;100773.13;5085722;27;45222;-38
2022/10/14 01:50:30;;;;;;;;;4.00;2.25;;;;;17.44;67.58;100775.69;5096861;27;45474;-38
2022/10/14 01:53:25;;;;;;;;;4.50;3.00;;;;;17.46;67.52;100776.44;5077110;27;45354;-38
2022/10/14 01:55:53;;;;;;;;;4.00;3.00;;;;;17.43;67.55;100773.97;5079762;27;45497;-38
2022/10/14 01:58:20;;;;;;;;;6.25;4.00;;;;;17.46;67.54;100780.91;5062689;27;45599;-38
2022/10/14 02:00:46;;;;;;;;;5.00;3.00;;;;;17.46;67.58;100779.09;5082687;27;45303;-38
2022/10/14 02:03:12;;;;;;;;;5.25;4.00;;;;;17.47;67.25;100774.66;5100276;27;45415;-39
2022/10/14 02:05:42;;;;;;;;;4.25;3.00;;;;;17.43;67.34;100767.81;5079686;28;60715;-38
2022/10/14 02:08:24;;;;;;;;;4.50;4.50;;;;;17.41;67.46;100773.19;5074040;27;45533;-39
2022/10/14 02:11:04;;;;;;;;;4.50;4.00;;;;;17.38;67.45;100768.06;5079626;27;45488;-38
2022/10/14 02:13:42;;;;;;;;;4.25;4.00;;;;;17.38;67.54;100767.22;5100770;27;45496;-38
2022/10/14 02:16:41;;;;;;;;;3.75;3.75;;;;;17.39;67.48;100761.00;5099964;27;45492;-38
2022/10/14 02:19:20;;;;;;;;;5.00;4.00;;;;;17.37;67.54;100758.44;5102773;27;45447;-38
2022/10/14 02:21:52;;;;;;;;;7.00;4.00;;;;;17.37;67.62;100752.28;5080426;27;45233;-38
2022/10/14 02:24:41;;;;;;;;;5.75;5.25;;;;;17.38;67.32;100754.00;5097021;27;47437;-38
2022/10/14 02:27:10;;;;;;;;;3.75;3.75;;;;;17.36;67.38;100750.59;5093590;27;45268;-38
2022/10/14 02:29:37;;;;;;;;;4.00;3.75;;;;;17.33;67.58;100748.09;5083851;27;45399;-38
2022/10/14 02:32:03;;;;;;;;;4.25;4.25;;;;;17.31;67.57;100753.47;5078888;27;45640;-38
2022/10/14 02:34:30;;;;;;;;;4.75;3.50;;;;;17.32;67.92;100759.63;5081354;27;45888;-38
2022/10/14 02:36:56;;;;;;;;;5.75;5.50;;;;;17.30;68.02;100743.84;5094491;27;45216;-38
2022/10/14 02:39:28;;;;;;;;;5.00;4.00;;;;;17.33;68.08;100740.16;5077837;27;49690;-38
2022/10/14 02:41:53;;;;;;;;;7.75;3.75;;;;;17.34;67.99;100739.25;5085348;27;45524;-38
2022/10/14 02:44:19;;;;;;;;;6.50;4.00;;;;;17.35;68.09;100740.94;5093083;27;60339;-38
2022/10/14 02:46:44;;;;;;;;;6.00;4.25;;;;;17.36;67.97;100751.44;5095649;27;69536;-38
2022/10/14 02:49:09;;;;;;;;;6.75;3.00;;;;;17.35;68.08;100744.44;5078527;27;58463;-38
2022/10/14 02:51:35;;;;;;;;;4.75;4.75;;;;;17.36;68.12;100738.22;5090745;27;71438;-38
2022/10/14 02:54:01;;;;;;;;;4.75;4.00;;;;;17.37;67.97;100737.28;5099545;27;54890;-38
2022/10/14 02:56:26;;;;;;;;;4.25;3.00;;;;;17.36;68.09;100735.56;5089506;27;45343;-38
2022/10/14 02:58:52;;;;;;;;;7.00;3.00;;;;;17.37;68.02;100733.75;5100821;27;45276;-38
2022/10/14 03:01:17;;;;;;;;;5.00;2.75;;;;;17.36;68.16;100735.56;5093889;27;60474;-38
2022/10/14 03:03:42;;;;;;;;;5.25;4.00;;;;;17.36;67.98;100738.22;5094061;27;46474;-38
2022/10/14 03:06:08;;;;;;;;;5.00;3.25;;;;;17.37;68.24;100744.34;5100277;27;47392;-38
2022/10/14 03:08:34;;;;;;;;;4.75;2.00;;;;;17.36;68.20;100743.50;5099789;27;45723;-38
2022/10/14 03:10:59;;;;;;;;;4.00;2.25;;;;;17.37;68.34;100741.69;5100402;27;45560;-39
2022/10/14 03:13:24;;;;;;;;;3.00;3.00;;;;;17.37;68.41;100739.06;5100922;27;46277;-38
2022/10/14 03:15:50;;;;;;;;;5.50;3.25;;;;;17.38;68.20;100746.06;5096146;27;54515;-38
2022/10/14 03:18:16;;;;;;;;;4.50;3.00;;;;;17.35;68.35;100738.28;5100430;27;46485;-38
2022/10/14 03:20:44;;;;;;;;;4.25;3.00;;;;;17.33;68.17;100734.88;5093273;27;45457;-38
2022/10/14 03:23:11;;;;;;;;;1.75;1.75;;;;;17.32;68.31;100743.78;5097689;27;46187;-38
2022/10/14 03:25:36;;;;;;;;;2.75;2.00;;;;;17.26;68.20;100742.28;5097850;27;45834;-38
2022/10/14 03:28:01;;;;;;;;;6.00;5.00;;;;;17.25;68.21;100736.16;5099066;27;53389;-38
2022/10/14 03:30:27;;;;;;;;;2.50;2.50;;;;;17.23;68.03;100745.13;5096437;27;45421;-39
2022/10/14 03:32:52;;;;;;;;;6.25;2.50;;;;;17.21;68.21;100734.63;5080534;27;74410;-38
2022/10/14 03:35:18;;;;;;;;;2.00;2.00;;;;;17.20;68.14;100742.63;5082606;27;65327;-38
2022/10/14 03:37:43;;;;;;;;;3.00;3.00;;;;;17.18;68.45;100739.22;5088396;27;69402;-38
2022/10/14 03:40:09;;;;;;;;;5.50;4.00;;;;;17.16;68.54;100725.25;5092908;27;49667;-38
2022/10/14 03:42:34;;;;;;;;;3.00;3.00;;;;;17.17;68.50;100725.13;5098609;27;46365;-38
2022/10/14 03:45:00;;;;;;;;;2.00;2.00;;;;;17.16;68.29;100728.72;5093765;27;72693;-38
2022/10/14 03:47:25;;;;;;;;;3.00;3.00;;;;;17.19;68.51;100725.94;5091384;27;45569;-38
2022/10/14 03:49:50;;;;;;;;;3.75;3.00;;;;;17.20;68.46;100719.69;5094090;27;50469;-38
2022/10/14 03:52:16;;;;;;;;;2.00;2.00;;;;;17.22;67.77;100720.44;5088267;27;70894;-39
2022/10/14 03:54:41;;;;;;;;;3.00;2.00;;;;;17.21;68.41;100717.88;5092260;27;45295;-39
2022/10/14 03:57:06;;;;;;;;;2.75;2.00;;;;;17.19;68.17;100719.75;5092277;27;65754;-38
2022/10/14 03:59:31;;;;;;;;;0.00;0.00;;;;;17.16;68.37;100717.31;5098940;27;64000;-38
2022/10/14 04:01:57;;;;;;;;;3.25;1.00;;;;;17.14;68.22;100725.31;5095627;27;75124;-38
2022/10/14 04:04:22;;;;;;;;;3.00;2.00;;;;;17.14;68.32;100722.69;5096511;27;70637;-38
2022/10/14 04:06:47;;;;;;;;;3.75;2.00;;;;;17.13;68.32;100726.25;5096456;27;69250;-38
2022/10/14 04:09:13;;;;;;;;;3.00;2.00;;;;;17.13;68.04;100723.59;5095622;27;66875;-38
2022/10/14 04:11:38;;;;;;;;;1.75;1.75;;;;;17.13;68.26;100723.59;5094527;27;46672;-38
2022/10/14 04:14:03;;;;;;;;;2.75;1.50;;;;;17.14;68.00;100733.25;5094635;27;66537;-37
2022/10/14 04:16:29;;;;;;;;;2.75;2.00;;;;;17.13;68.27;100726.25;5078622;27;45304;-38
2022/10/14 04:18:54;;;;;;;;;2.75;1.50;;;;;17.12;68.07;100731.63;5096903;27;69710;-38
2022/10/14 04:21:19;;;;;;;;;2.00;1.25;;;;;17.10;68.11;100723.75;5099537;27;67637;-37
2022/10/14 04:23:45;;;;;;;;;1.75;1.75;;;;;17.07;67.96;100722.16;5068124;27;63000;-37
2022/10/14 04:26:10;;;;;;;;;1.25;1.00;;;;;17.07;68.23;100731.88;5090100;27;59191;-37
2022/10/14 04:28:36;;;;;;;;;1.25;1.25;;;;;17.06;67.81;100725.72;5098234;27;45369;-37
2022/10/14 04:31:02;;;;;;;;;1.00;1.00;;;;;17.06;68.12;100717.78;5093333;27;46279;-37
2022/10/14 04:33:27;;;;;;;;;1.00;1.00;;;;;17.08;67.97;100704.50;5100625;27;45316;-37
2022/10/14 04:36:00;;;;;;;;;1.00;1.00;;;;;17.09;67.96;100708.84;5089543;27;58748;-37
2022/10/14 04:38:26;;;;;;;;;1.75;1.75;;;;;17.10;67.99;100720.28;5100124;27;45490;-38
2022/10/14 04:40:51;;;;;;;;;4.50;1.00;;;;;17.10;67.77;100712.34;5080908;27;48315;-37
2022/10/14 04:43:17;;;;;;;;;1.25;1.00;;;;;17.10;67.72;100718.47;5096371;27;65917;-38
2022/10/14 04:45:42;;;;;;;;;2.50;0.75;;;;;17.10;67.52;100721.13;5095408;27;45972;-37
2022/10/14 04:48:07;;;;;;;;;3.00;0.75;;;;;17.10;67.85;100720.28;5074276;28;74321;-37
2022/10/14 04:50:33;;;;;;;;;3.25;1.00;;;;;17.10;68.01;100714.97;5085617;27;74568;-37
2022/10/14 04:52:58;;;;;;;;;2.50;2.00;;;;;17.10;67.29;100715.81;5099125;27;59492;-37
2022/10/14 04:55:24;;;;;;;;;2.00;1.00;;;;;17.07;67.64;100719.50;5082062;27;61203;-38
2022/10/14 04:57:49;;;;;;;;;1.50;1.00;;;;;17.06;67.54;100707.22;5081883;27;54349;-38
2022/10/14 05:00:15;;;;;;;;;2.00;2.00;;;;;17.06;67.65;100704.56;5090410;27;45388;-38
2022/10/14 05:02:40;;;;;;;;;2.00;2.00;;;;;17.05;67.56;100691.44;5091209;27;45302;-38
2022/10/14 05:05:06;;;;;;;;;3.50;2.00;;;;;17.05;67.54;100712.56;5092820;27;45294;-38
2022/10/14 05:07:32;;;;;;;;;1.75;1.75;;;;;17.04;67.36;100709.09;5069535;27;45617;-38
2022/10/14 05:09:57;;;;;;;;;1.00;1.00;;;;;17.02;67.53;100700.41;5096886;27;45403;-38
2022/10/14 05:12:22;;;;;;;;;2.00;2.00;;;;;17.01;67.27;100697.84;5070622;27;45305;-38
2022/10/14 05:14:48;;;;;;;;;3.25;3.00;;;;;17.00;67.32;100699.63;5074192;27;45345;-39
2022/10/14 05:17:13;;;;;;;;;3.25;1.75;;;;;16.99;67.48;100699.72;5088372;27;45282;-38
2022/10/14 05:19:39;;;;;;;;;2.25;2.00;;;;;16.98;67.35;100712.09;5094365;27;47071;-38
2022/10/14 05:22:04;;;;;;;;;4.00;2.75;;;;;16.99;67.43;100705.00;5095789;27;64603;-38
2022/10/14 05:24:29;;;;;;;;;2.00;2.00;;;;;16.97;67.48;100697.16;5075449;27;45761;-38
2022/10/14 05:26:55;;;;;;;;;2.25;2.25;;;;;16.98;67.28;100703.28;5069986;27;45413;-38
2022/10/14 05:29:20;;;;;;;;;1.75;1.75;;;;;16.95;67.45;100698.19;5070841;27;67906;-38
2022/10/14 05:31:45;;;;;;;;;4.25;2.75;;;;;16.96;67.72;100697.22;5079247;27;64320;-38
2022/10/14 05:34:11;;;;;;;;;3.50;2.00;;;;;16.95;67.61;100688.44;5068140;27;45360;-38
2022/10/14 05:36:36;;;;;;;;;4.00;3.00;;;;;16.96;67.37;100689.28;5094099;27;46100;-38
2022/10/14 05:39:02;;;;;;;;;3.00;3.00;;;;;16.92;67.65;100683.31;5096700;27;53974;-38
2022/10/14 05:41:27;;;;;;;;;4.25;2.00;;;;;16.93;67.47;100686.81;5056471;28;45503;-38
2022/10/14 05:43:53;;;;;;;;;2.00;2.00;;;;;16.93;67.73;100685.03;5090486;27;53066;-38
2022/10/14 05:46:18;;;;;;;;;5.25;4.00;;;;;16.95;67.23;100688.44;5076344;27;45946;-37
2022/10/14 05:48:43;;;;;;;;;3.00;3.00;;;;;16.97;67.47;100693.66;5076125;27;46369;-38
2022/10/14 05:51:09;;;;;;;;;2.25;2.00;;;;;16.97;67.55;100698.94;5090128;27;61199;-38
2022/10/14 05:53:35;;;;;;;;;4.00;3.25;;;;;16.97;67.59;100688.38;5063766;27;45318;-38
2022/10/14 05:56:07;;;;;;;;;3.75;2.25;;;;;16.98;67.28;100690.06;5092852;27;45509;-38
2022/10/14 05:58:33;;;;;;;;;2.50;2.50;;;;;16.98;67.64;100693.56;5076101;27;45710;-38
2022/10/14 06:01:02;;;;;;;;;4.00;2.25;;;;;16.97;67.63;100691.00;5091088;27;45256;-38
2022/10/14 06:03:28;;;;;;;;;3.50;3.00;;;;;16.92;67.70;100690.41;5088056;27;45331;-38
2022/10/14 06:05:53;;;;;;;;;2.25;2.25;;;;;16.92;67.69;100691.25;5069459;27;45313;-38
2022/10/14 06:08:19;;;;;;;;;3.75;2.50;;;;;16.91;67.99;100696.63;5074469;27;46795;-38
2022/10/14 06:10:44;;;;;;;;;2.25;2.25;;;;;16.92;67.63;100693.06;5076339;27;45963;-38
2022/10/14 06:13:10;;;;;;;;;6.00;6.00;;;;;16.92;67.96;100691.25;5077292;27;45276;-38
2022/10/14 06:15:35;;;;;;;;;4.00;4.00;;;;;16.94;67.89;100696.47;5093989;27;50446;-38
2022/10/14 06:18:00;;;;;;;;;6.00;4.00;;;;;16.95;67.78;100690.25;5096484;27;54325;-37
2022/10/14 06:20:26;;;;;;;;;3.50;3.50;;;;;16.98;67.60;100690.06;5087380;27;72228;-37
2022/10/14 06:22:51;;;;;;;;;6.00;4.00;;;;;16.99;67.72;100691.78;5089295;27;45221;-39
2022/10/14 06:25:17;;;;;;;;;4.25;4.25;;;;;16.99;67.70;100703.19;5094205;27;57492;-38
2022/10/14 06:27:42;;;;;;;;;3.50;3.25;;;;;17.00;67.67;100704.91;5085956;27;46516;-38
2022/10/14 06:30:08;;;;;;;;;4.00;3.00;;;;;17.00;67.68;100706.72;5070494;27;45224;-38
2022/10/14 06:32:34;;;;;;;;;3.25;3.00;;;;;17.01;67.83;100696.03;5099439;27;45346;-38
2022/10/14 06:34:59;;;;;;;;;6.00;4.00;;;;;17.04;67.81;100709.09;5096947;27;45334;-38
2022/10/14 06:37:24;;;;;;;;;6.25;4.50;;;;;17.07;67.61;100703.66;5073373;28;67548;-37
2022/10/14 06:39:50;;;;;;;;;5.75;4.00;;;;;17.09;67.50;100682.41;5085062;27;45331;-38
2022/10/14 06:42:15;;;;;;;;;4.00;3.00;;;;;17.11;67.48;100690.25;5088864;27;48061;-38
2022/10/14 06:44:40;;;;;;;;;6.50;3.25;;;;;17.12;67.35;100698.09;5093931;27;45430;-37
2022/10/14 06:47:06;;;;;;;;;3.25;3.25;;;;;17.12;67.30;100700.72;5098881;27;51052;-38
2022/10/14 06:49:32;;;;;;;;;4.00;4.00;;;;;17.13;67.13;100699.81;5101585;27;45481;-38
2022/10/14 06:51:57;;;;;;;;;5.25;4.00;;;;;17.17;67.40;100700.50;5102648;27;47827;-38
2022/10/14 06:54:22;;;;;;;;;7.25;3.50;;;;;17.19;67.09;100701.25;5064788;27;50915;-37
2022/10/14 06:56:48;;;;;;;;;6.50;6.00;;;;;17.19;67.07;100707.41;5100898;27;70103;-38
2022/10/14 06:59:13;;;;;;;;;65.00;47.00;;;;;17.17;67.47;100706.63;5095484;27;65427;-38
2022/10/14 07:01:39;;;;;;;;;4.00;4.00;;;;;17.18;67.11;100708.34;5089599;27;66443;-38
2022/10/14 07:04:04;;;;;;;;;4.00;3.00;;;;;17.19;67.22;100711.81;5078351;27;45417;-38
2022/10/14 07:06:30;;;;;;;;;6.00;5.50;;;;;17.19;66.75;100715.34;5083924;27;45924;-38
2022/10/14 07:08:55;;;;;;;;;3.75;3.00;;;;;17.17;66.76;100716.34;5095761;27;45481;-38
2022/10/14 07:11:20;;;;;;;;;2.50;2.50;;;;;17.16;66.95;100714.66;5100781;27;45469;-38
2022/10/14 07:13:46;;;;;;;;;5.25;4.25;;;;;17.18;66.84;100721.56;5101627;27;45208;-38
2022/10/14 07:16:11;;;;;;;;;3.00;3.00;;;;;17.18;66.49;100726.00;5091536;27;45450;-38
2022/10/14 07:18:36;;;;;;;;;3.25;3.25;;;;;17.16;66.50;100722.59;5101361;27;67209;-39
2022/10/14 07:21:03;;;;;;;;;3.50;3.00;;;;;17.14;66.93;100730.63;5086520;27;48852;-38
2022/10/14 07:23:28;;;;;;;;;5.50;3.25;;;;;17.14;66.67;100732.38;5078751;27;45510;-38
2022/10/14 07:25:58;;;;;;;;;4.00;3.25;;;;;17.16;66.54;100741.09;5078910;27;47465;-37
2022/10/14 07:28:24;;;;;;;;;5.00;4.00;;;;;17.16;66.34;100735.81;5098977;27;45426;-38
2022/10/14 07:31:01;;;;;;;;;3.75;2.25;;;;;17.14;66.41;100741.19;5079447;27;45742;-38
2022/10/14 07:33:26;;;;;;;;;2.00;2.00;;;;;17.13;65.94;100744.75;5092091;27;45471;-39
2022/10/14 07:35:52;;;;;;;;;4.75;2.00;;;;;17.14;65.93;100740.31;5093419;27;46072;-38
2022/10/14 07:38:17;;;;;;;;;2.00;2.00;;;;;17.12;65.45;100750.97;5101076;27;67934;-38
2022/10/14 07:40:43;;;;;;;;;5.00;3.75;;;;;17.15;65.69;100753.47;5080523;27;45206;-37
2022/10/14 07:43:08;;;;;;;;;4.75;3.25;;;;;17.11;65.83;100759.00;5102112;27;45288;-37
2022/10/14 07:45:35;;;;;;;;;6.25;4.00;;;;;17.10;65.28;100752.84;5088365;27;46099;-38
2022/10/14 07:48:00;;;;;;;;;2.75;2.75;;;;;17.09;65.66;100756.44;5091213;27;45454;-38
2022/10/14 07:50:26;;;;;;;;;2.25;2.00;;;;;17.06;65.57;100756.59;5077037;27;45434;-39
2022/10/14 07:52:51;;;;;;;;;1.75;0.75;;;;;17.06;65.58;100762.75;5079065;28;45427;-38
2022/10/14 07:55:17;;;;;;;;;3.00;1.50;;;;;17.03;65.47;100757.63;5071388;27;61809;-38
2022/10/14 07:57:42;;;;;;;;;2.25;1.00;;;;;17.00;65.44;100762.22;5101109;27;45315;-38
2022/10/14 08:00:08;;;;;;;;;2.00;2.00;;;;;16.96;65.35;100761.50;5079844;28;45857;-38
2022/10/14 08:02:34;;;;;;;;;2.25;2.00;;;;;16.97;65.42;100759.75;5081982;27;45444;-38
2022/10/14 08:05:00;;;;;;;;;2.00;2.00;;;;;16.98;65.44;100767.59;5100289;27;45280;-38
2022/10/14 08:07:26;;;;;;;;;3.50;3.00;;;;;17.01;65.51;100771.84;5070146;28;45354;-38
2022/10/14 08:09:55;;;;;;;;;3.50;2.50;;;;;17.04;65.64;100777.84;5074217;27;45401;-38
2022/10/14 08:12:20;;;;;;;;;2.00;1.00;;;;;17.07;65.44;100787.41;5101204;27;45362;-39
2022/10/14 08:14:45;;;;;;;;;3.00;1.00;;;;;17.06;65.14;100789.19;5099557;27;45568;-38
2022/10/14 08:17:11;;;;;;;;;1.75;1.75;;;;;17.06;65.25;100783.03;5100472;27;67378;-38
2022/10/14 08:19:36;;;;;;;;;3.25;2.25;;;;;17.06;65.30;100789.19;5072470;27;64630;-38
2022/10/14 08:22:01;;;;;;;;;4.00;3.00;;;;;17.08;65.24;100781.16;5098888;27;52683;-39
2022/10/14 08:24:27;;;;;;;;;10.75;5.00;;;;;17.12;65.33;100785.34;5076998;27;75527;-39
2022/10/14 08:26:57;;;;;;;;;7.25;4.00;;;;;17.16;65.23;100786.06;5083143;27;45367;-38
2022/10/14 08:29:23;;;;;;;;;6.75;4.75;;;;;17.19;65.09;100777.94;5079410;27;45386;-38
2022/10/14 08:31:50;;;;;;;;;5.50;5.00;;;;;17.20;64.82;100782.31;5090961;27;45339;-38
2022/10/14 08:34:17;;;;;;;;;3.50;2.00;;;;;17.21;65.06;100790.16;5078557;28;45568;-39
2022/10/14 08:36:42;;;;;;;;;7.75;4.75;;;;;17.21;64.92;100790.16;5093740;27;45642;-38
2022/10/14 08:39:07;;;;;;;;;5.75;5.25;;;;;17.21;64.80;100789.28;5100329;27;61584;-38
2022/10/14 08:42:01;;;;;;;;;4.50;2.25;;;;;17.21;64.57;100778.72;5073213;28;56498;-38
2022/10/14 08:44:54;;;;;;;;;4.50;3.50;;;;;17.19;64.77;100780.59;5093766;27;45374;-38
2022/10/14 08:47:23;;;;;;;;;5.00;3.00;;;;;17.19;64.80;100792.03;5100518;27;45858;-38
2022/10/14 08:49:57;;;;;;;;;4.00;2.00;;;;;17.21;64.85;100776.06;5079790;27;45442;-38
2022/10/14 08:52:33;;;;;;;;;2.50;2.25;;;;;17.20;64.62;100784.94;5079840;27;45545;-38
2022/10/14 08:55:02;;;;;;;;;2.25;2.00;;;;;17.20;64.72;100782.31;5099193;27;46449;-38
2022/10/14 08:57:33;;;;;;;;;2.50;2.50;;;;;17.20;64.97;100782.31;5098263;27;45342;-39
2022/10/14 08:59:59;;;;;;;;;4.00;2.00;;;;;17.18;64.59;100777.09;5096405;27;45481;-39
2022/10/14 09:02:30;;;;;;;;;1.50;1.00;;;;;17.18;65.01;100777.09;5075896;27;68917;-38
2022/10/14 09:04:56;;;;;;;;;7.75;2.50;;;;;17.19;64.78;100776.19;5087308;27;45395;-39
2022/10/14 09:07:21;;;;;;;;;6.00;5.00;;;;;17.22;65.08;100783.91;5078576;27;61403;-39
2022/10/14 09:09:50;;;;;;;;;4.00;4.00;;;;;17.24;64.83;100784.69;5098540;27;45307;-39
2022/10/14 09:12:20;;;;;;;;;1.75;1.50;;;;;17.23;64.86;100776.88;5100923;27;45156;-38
2022/10/14 09:15:08;;;;;;;;;3.00;2.00;;;;;17.23;64.99;100777.72;5081836;27;45450;-39
2022/10/14 09:18:16;;;;;;;;;3.50;3.00;;;;;17.23;64.80;100759.19;5064956;27;45469;-38
2022/10/14 09:20:42;;;;;;;;;7.00;4.75;;;;;17.24;65.04;100758.25;5073491;27;45446;-39
2022/10/14 09:23:22;;;;;;;;;3.50;3.25;;;;;17.28;64.70;100758.91;5097491;27;45497;-39
2022/10/14 09:25:57;;;;;;;;;1.00;1.00;;;;;17.30;65.02;100759.72;5098599;27;46095;-37
2022/10/14 09:28:30;;;;;;;;;4.75;3.75;;;;;17.31;65.05;100753.47;5093694;27;45441;-37
2022/10/14 09:30:55;;;;;;;;;4.00;3.00;;;;;17.33;64.92;100762.19;5057392;28;45487;-38
2022/10/14 09:33:27;;;;;;;;;5.00;3.00;;;;;17.37;64.86;100757.56;5087972;27;63435;-37
2022/10/14 09:35:52;;;;;;;;;4.00;2.75;;;;;17.38;64.65;100754.84;5080541;27;45486;-38
2022/10/14 09:38:17;;;;;;;;;2.75;2.00;;;;;17.39;64.71;100751.28;5097974;27;68695;-38
2022/10/14 09:40:45;;;;;;;;;4.00;4.00;;;;;17.41;64.69;100748.53;5081282;27;65872;-38
2022/10/14 09:43:10;;;;;;;;;5.00;5.00;;;;;17.42;64.86;100740.53;5080469;27;45568;-38
2022/10/14 09:45:52;;;;;;;;;4.00;3.00;;;;;17.44;64.76;100748.34;5096378;27;46091;-37
2022/10/14 09:48:31;;;;;;;;;6.00;3.50;;;;;17.46;64.82;100749.16;5095311;27;45722;-38
2022/10/14 09:50:58;;;;;;;;;6.00;5.75;;;;;17.49;64.80;100750.75;5068327;28;45327;-37
2022/10/14 09:53:27;;;;;;;;;5.00;4.00;;;;;17.51;64.98;100755.03;5090932;27;45385;-38
2022/10/14 09:55:58;;;;;;;;;6.25;5.00;;;;;17.55;64.69;100755.72;5096934;27;46321;-38
2022/10/14 09:58:30;;;;;;;;;6.00;4.50;;;;;17.57;64.51;100743.25;5098799;27;45800;-38
2022/10/14 10:00:57;;;;;;;;;6.00;6.00;;;;;17.56;64.62;100747.66;5093099;27;45376;-38
2022/10/14 10:03:31;;;;;;;;;4.75;4.00;;;;;17.58;64.48;100753.75;5084507;27;45352;-38
2022/10/14 10:06:18;;;;;;;;;5.50;5.50;;;;;17.59;64.79;100758.09;5099538;27;47149;-40
2022/10/14 10:08:52;;;;;;;;;7.00;5.00;;;;;17.62;64.60;100760.56;5082457;27;45338;-39
2022/10/14 10:11:37;;;;;;;;;5.25;5.00;;;;;17.65;64.59;100756.88;5087207;27;45508;-42
2022/10/14 10:14:20;;;;;;;;;0.50;0.25;;;;;17.68;64.51;100753.22;5094495;27;45381;-39
2022/10/14 10:16:46;;;;;;;;;4.00;4.00;;;;;17.70;64.67;100754.00;5098688;27;46222;-39
2022/10/14 10:19:35;;;;;;;;;8.25;4.00;;;;;17.72;64.38;100750.31;5101537;27;45440;-37
2022/10/14 10:22:23;;;;;;;;;4.00;4.00;;;;;17.76;64.39;100745.69;5081646;27;45265;-39
2022/10/14 10:24:51;;;;;;;;;7.00;3.00;;;;;17.79;64.17;100751.66;5092850;27;45473;-39
2022/10/14 10:27:22;;;;;;;;;3.50;3.25;;;;;17.79;64.06;100737.59;5080905;28;46369;-38
2022/10/14 10:29:48;;;;;;;;;11.50;5.75;;;;;17.80;63.98;100740.16;5092731;27;45207;-38
2022/10/14 10:32:29;;;;;;;;;5.25;5.25;;;;;17.83;63.70;100731.19;5079759;27;45460;-39
2022/10/14 10:35:21;;;;;;;;;5.00;4.50;;;;;17.87;63.77;100729.25;5078080;27;45304;-38
2022/10/14 10:38:19;;;;;;;;;6.00;4.75;;;;;17.91;63.67;100733.41;5049704;28;46033;-38
2022/10/14 10:41:25;;;;;;;;;6.75;5.00;;;;;17.95;63.55;100733.13;5094873;27;45305;-37
2022/10/14 10:44:08;;;;;;;;;8.50;5.75;;;;;18.01;63.52;100726.66;5099027;27;45214;-38
2022/10/14 10:46:50;;;;;;;;;10.75;9.50;;;;;18.05;63.29;100716.72;5100572;27;45465;-37
2022/10/14 10:49:15;;;;;;;;;6.00;4.75;;;;;18.11;63.21;100716.34;5081939;27;46406;-38
2022/10/14 10:52:07;;;;;;;;;4.00;4.00;;;;;18.14;63.50;100706.44;5101133;27;46317;-39
2022/10/14 10:54:44;;;;;;;;;4.00;4.00;;;;;18.19;62.92;100712.31;5086247;27;45459;-38
2022/10/14 10:57:58;;;;;;;;;5.00;5.00;;;;;18.18;62.59;100688.56;5096920;27;45358;-38
2022/10/14 11:00:24;;;;;;;;;4.25;3.75;;;;;18.26;62.45;100691.63;5074201;27;45666;-39
2022/10/14 11:02:53;;;;;;;;;4.00;3.50;;;;;18.28;62.26;100683.59;5076326;27;45434;-39
2022/10/14 11:05:43;;;;;;;;;8.00;6.00;;;;;18.32;62.31;100679.78;5085044;27;45269;-38
2022/10/14 11:14:30;;;;;;;;;2.25;2.00;;;;;18.32;61.20;100690.41;5082681;27;45750;-39
2022/10/14 11:17:00;;;;;;;;;3.25;3.25;;;;;18.28;61.19;100683.59;5098876;27;45303;-38
2022/10/14 11:19:37;;;;;;;;;4.00;2.00;;;;;18.25;61.11;100684.59;5101497;27;45239;-38
2022/10/14 11:22:38;;;;;;;;;3.00;2.00;;;;;18.24;61.21;100672.31;5100295;27;45332;-39
2022/10/14 11:25:31;;;;;;;;;3.00;3.00;;;;;18.24;61.38;100661.72;5067486;27;45331;-39
2022/10/14 11:28:08;;;;;;;;;3.00;3.00;;;;;18.25;61.47;100649.31;5069808;28;45335;-38
2022/10/14 11:30:51;;;;;;;;;6.50;4.25;;;;;18.24;61.63;100651.13;5096624;27;45486;-39
2022/10/14 11:33:25;;;;;;;;;4.00;2.00;;;;;18.23;61.89;100648.56;5099969;27;46208;-38
2022/10/14 11:36:10;;;;;;;;;3.00;3.00;;;;;18.20;62.15;100645.16;5097334;27;45556;-38
2022/10/14 11:38:58;;;;;;;;;8.50;5.25;;;;;18.19;62.60;100647.91;5082548;27;45381;-38
2022/10/14 11:41:51;;;;;;;;;15.25;13.50;;;;;18.18;62.70;100633.81;5072075;27;45430;-38